Terminal Aerodrome Forecast
Issued by NWS

Home | Current Version | Previous Version | Text Only | Print | Product List | Glossary On
Versions: 1 2 3 4 5 6 7 8 9 10 11 12 13 14 15 16 17 18 19 20 21 22 23 24 25
000
FTUS43 KILX 180520
TAFBMI
TAF
KBMI 180520Z 1806/1906 19015KT P6SM VCSH OVC018
     FM180700 19015KT 4SM SHRA BR VCTS OVC008CB
     FM181100 25007KT 1SM SHRA BR VCTS OVC003CB
     FM181400 31013G21KT 1SM SHRA BR OVC008
     FM181800 33022G33KT 3SM -SHRA BR OVC008
     FM182200 32018G26KT P6SM -SHRA BKN035
     FM190100 31015G25KT P6SM FEW200=

USA.gov is the U.S. government's official web portal to all federal, state and local government web resources and services.